sensor_id;sensor_type;location;lat;lon;timestamp;temperature;humidity
16066;DHT22;8137;48.952;8.970;2022-12-18T00:01:35;-9.70;99.90
16066;DHT22;8137;48.952;8.970;2022-12-18T00:04:03;-9.80;99.90
16066;DHT22;8137;48.952;8.970;2022-12-18T00:06:31;-9.80;99.90
16066;DHT22;8137;48.952;8.970;2022-12-18T00:08:58;-9.80;99.90
16066;DHT22;8137;48.952;8.970;2022-12-18T00:11:28;-9.80;99.90
16066;DHT22;8137;48.952;8.970;2022-12-18T00:13:55;-9.80;99.90
16066;DHT22;8137;48.952;8.970;2022-12-18T00:16:22;-9.90;99.90
16066;DHT22;8137;48.952;8.970;2022-12-18T00:18:50;-9.80;99.90
16066;DHT22;8137;48.952;8.970;2022-12-18T00:21:16;-9.80;99.90
16066;DHT22;8137;48.952;8.970;2022-12-18T00:23:43;-9.70;99.90
16066;DHT22;8137;48.952;8.970;2022-12-18T00:26:18;-9.60;99.90
16066;DHT22;8137;48.952;8.970;2022-12-18T00:28:45;-9.60;99.90
16066;DHT22;8137;48.952;8.970;2022-12-18T00:31:13;-9.60;99.90
16066;DHT22;8137;48.952;8.970;2022-12-18T00:33:39;-9.60;99.90
16066;DHT22;8137;48.952;8.970;2022-12-18T00:36:07;-9.50;99.90
16066;DHT22;8137;48.952;8.970;2022-12-18T00:38:34;-9.50;99.90
16066;DHT22;8137;48.952;8.970;2022-12-18T00:41:00;-9.50;99.90
16066;DHT22;8137;48.952;8.970;2022-12-18T00:43:26;-9.50;99.90
16066;DHT22;8137;48.952;8.970;2022-12-18T00:45:52;-9.40;99.90
16066;DHT22;8137;48.952;8.970;2022-12-18T00:48:18;-9.40;99.90
16066;DHT22;8137;48.952;8.970;2022-12-18T00:50:43;-9.40;99.90
16066;DHT22;8137;48.952;8.970;2022-12-18T00:53:09;-9.40;99.90
16066;DHT22;8137;48.952;8.970;2022-12-18T00:55:34;-9.40;99.90
16066;DHT22;8137;48.952;8.970;2022-12-18T00:58:00;-9.40;99.90
16066;DHT22;8137;48.952;8.970;2022-12-18T01:00:26;-9.50;99.90
16066;DHT22;8137;48.952;8.970;2022-12-18T01:02:51;-9.50;99.90
16066;DHT22;8137;48.952;8.970;2022-12-18T01:05:17;-9.50;99.90
16066;DHT22;8137;48.952;8.970;2022-12-18T01:07:42;-9.60;99.90
16066;DHT22;8137;48.952;8.970;2022-12-18T01:10:10;-9.60;99.90
16066;DHT22;8137;48.952;8.970;2022-12-18T01:12:37;-9.60;99.90
16066;DHT22;8137;48.952;8.970;2022-12-18T01:15:05;-9.60;99.90
16066;DHT22;8137;48.952;8.970;2022-12-18T01:17:31;-9.60;99.90
16066;DHT22;8137;48.952;8.970;2022-12-18T01:19:57;-9.60;99.90
16066;DHT22;8137;48.952;8.970;2022-12-18T01:22:22;-9.60;99.90
16066;DHT22;8137;48.952;8.970;2022-12-18T01:24:48;-9.60;99.90
16066;DHT22;8137;48.952;8.970;2022-12-18T01:27:13;-9.70;99.90
16066;DHT22;8137;48.952;8.970;2022-12-18T01:29:39;-9.70;99.90
16066;DHT22;8137;48.952;8.970;2022-12-18T01:32:05;-9.70;99.90
16066;DHT22;8137;48.952;8.970;2022-12-18T01:34:30;-9.70;99.90
16066;DHT22;8137;48.952;8.970;2022-12-18T01:36:56;-9.70;99.90
16066;DHT22;8137;48.952;8.970;2022-12-18T01:39:21;-9.80;99.90
16066;DHT22;8137;48.952;8.970;2022-12-18T01:41:47;-9.80;99.90
16066;DHT22;8137;48.952;8.970;2022-12-18T01:47:25;-9.80;99.90
16066;DHT22;8137;48.952;8.970;2022-12-18T01:49:51;-9.90;99.90
16066;DHT22;8137;48.952;8.970;2022-12-18T01:52:18;-9.90;99.90
16066;DHT22;8137;48.952;8.970;2022-12-18T01:54:46;-9.90;99.90
16066;DHT22;8137;48.952;8.970;2022-12-18T01:57:12;-9.80;99.90
16066;DHT22;8137;48.952;8.970;2022-12-18T01:59:39;-9.80;99.90
16066;DHT22;8137;48.952;8.970;2022-12-18T02:02:06;-9.70;99.90
16066;DHT22;8137;48.952;8.970;2022-12-18T02:04:32;-9.60;99.90
16066;DHT22;8137;48.952;8.970;2022-12-18T02:09:40;-9.60;99.90
16066;DHT22;8137;48.952;8.970;2022-12-18T02:12:25;-9.60;99.90
16066;DHT22;8137;48.952;8.970;2022-12-18T02:15:06;-9.50;99.90
16066;DHT22;8137;48.952;8.970;2022-12-18T02:17:43;-9.50;99.90
16066;DHT22;8137;48.952;8.970;2022-12-18T02:20:45;-9.50;99.90
16066;DHT22;8137;48.952;8.970;2022-12-18T02:26:16;-9.50;99.90
16066;DHT22;8137;48.952;8.970;2022-12-18T02:28:53;-9.40;99.90
16066;DHT22;8137;48.952;8.970;2022-12-18T02:31:25;-9.40;99.90
16066;DHT22;8137;48.952;8.970;2022-12-18T02:33:54;-9.30;99.90
16066;DHT22;8137;48.952;8.970;2022-12-18T02:36:22;-9.30;99.90
16066;DHT22;8137;48.952;8.970;2022-12-18T02:38:50;-9.30;99.90
16066;DHT22;8137;48.952;8.970;2022-12-18T02:41:17;-9.30;99.90
16066;DHT22;8137;48.952;8.970;2022-12-18T02:43:57;-9.30;99.90
16066;DHT22;8137;48.952;8.970;2022-12-18T02:49:06;-9.20;99.90
16066;DHT22;8137;48.952;8.970;2022-12-18T02:52:13;-9.20;99.90
16066;DHT22;8137;48.952;8.970;2022-12-18T02:57:31;-9.20;99.90
16066;DHT22;8137;48.952;8.970;2022-12-18T03:00:10;-9.20;99.90
16066;DHT22;8137;48.952;8.970;2022-12-18T03:05:45;-9.20;99.90
16066;DHT22;8137;48.952;8.970;2022-12-18T03:10:50;-9.20;99.90
16066;DHT22;8137;48.952;8.970;2022-12-18T03:13:30;-9.30;99.90
16066;DHT22;8137;48.952;8.970;2022-12-18T03:15:58;-9.30;99.90
16066;DHT22;8137;48.952;8.970;2022-12-18T03:21:05;-9.40;99.90
16066;DHT22;8137;48.952;8.970;2022-12-18T03:23:35;-9.40;99.90
16066;DHT22;8137;48.952;8.970;2022-12-18T03:26:06;-9.40;99.90
16066;DHT22;8137;48.952;8.970;2022-12-18T03:28:36;-9.50;99.90
16066;DHT22;8137;48.952;8.970;2022-12-18T03:31:05;-9.50;99.90
16066;DHT22;8137;48.952;8.970;2022-12-18T03:33:46;-9.50;99.90
16066;DHT22;8137;48.952;8.970;2022-12-18T03:36:12;-9.40;99.90
16066;DHT22;8137;48.952;8.970;2022-12-18T03:38:39;-9.40;99.90
16066;DHT22;8137;48.952;8.970;2022-12-18T03:43:57;-9.40;99.90
16066;DHT22;8137;48.952;8.970;2022-12-18T03:49:36;-9.40;99.90
16066;DHT22;8137;48.952;8.970;2022-12-18T03:52:09;-9.50;99.90
16066;DHT22;8137;48.952;8.970;2022-12-18T03:54:35;-9.60;99.90
16066;DHT22;8137;48.952;8.970;2022-12-18T03:57:06;-9.60;99.90
16066;DHT22;8137;48.952;8.970;2022-12-18T03:59:35;-9.60;99.90
16066;DHT22;8137;48.952;8.970;2022-12-18T04:02:04;-9.60;99.90
16066;DHT22;8137;48.952;8.970;2022-12-18T04:04:33;-9.70;99.90
16066;DHT22;8137;48.952;8.970;2022-12-18T04:06:59;-9.70;99.90
16066;DHT22;8137;48.952;8.970;2022-12-18T04:09:26;-9.70;99.90
16066;DHT22;8137;48.952;8.970;2022-12-18T04:11:52;-9.70;99.90
16066;DHT22;8137;48.952;8.970;2022-12-18T04:14:18;-9.70;99.90
16066;DHT22;8137;48.952;8.970;2022-12-18T04:16:43;-9.80;99.90
16066;DHT22;8137;48.952;8.970;2022-12-18T04:19:09;-9.80;99.90
16066;DHT22;8137;48.952;8.970;2022-12-18T04:21:35;-9.80;99.90
16066;DHT22;8137;48.952;8.970;2022-12-18T04:24:00;-9.80;99.90
16066;DHT22;8137;48.952;8.970;2022-12-18T04:26:26;-9.80;99.90
16066;DHT22;8137;48.952;8.970;2022-12-18T04:28:51;-9.80;99.90
16066;DHT22;8137;48.952;8.970;2022-12-18T04:31:17;-9.80;99.90
16066;DHT22;8137;48.952;8.970;2022-12-18T04:33:42;-9.80;99.90
16066;DHT22;8137;48.952;8.970;2022-12-18T04:36:08;-9.80;99.90
16066;DHT22;8137;48.952;8.970;2022-12-18T04:38:34;-9.70;99.90
16066;DHT22;8137;48.952;8.970;2022-12-18T04:41:00;-9.70;99.90
16066;DHT22;8137;48.952;8.970;2022-12-18T04:43:25;-9.70;99.90
16066;DHT22;8137;48.952;8.970;2022-12-18T04:45:51;-9.60;99.90
16066;DHT22;8137;48.952;8.970;2022-12-18T04:48:16;-9.60;99.90
16066;DHT22;8137;48.952;8.970;2022-12-18T04:50:42;-9.60;99.90
16066;DHT22;8137;48.952;8.970;2022-12-18T04:53:08;-9.60;99.90
16066;DHT22;8137;48.952;8.970;2022-12-18T04:55:33;-9.50;99.90
16066;DHT22;8137;48.952;8.970;2022-12-18T04:57:59;-9.50;99.90
16066;DHT22;8137;48.952;8.970;2022-12-18T05:00:24;-9.50;99.90
16066;DHT22;8137;48.952;8.970;2022-12-18T05:02:50;-9.50;99.90
16066;DHT22;8137;48.952;8.970;2022-12-18T05:05:16;-9.60;99.90
16066;DHT22;8137;48.952;8.970;2022-12-18T05:07:41;-9.60;99.90
16066;DHT22;8137;48.952;8.970;2022-12-18T05:10:07;-9.60;99.90
16066;DHT22;8137;48.952;8.970;2022-12-18T05:12:33;-9.60;99.90
16066;DHT22;8137;48.952;8.970;2022-12-18T05:14:59;-9.60;99.90
16066;DHT22;8137;48.952;8.970;2022-12-18T05:17:24;-9.60;99.90
16066;DHT22;8137;48.952;8.970;2022-12-18T05:19:50;-9.60;99.90
16066;DHT22;8137;48.952;8.970;2022-12-18T05:22:15;-9.50;99.90
16066;DHT22;8137;48.952;8.970;2022-12-18T05:24:41;-9.60;99.90
16066;DHT22;8137;48.952;8.970;2022-12-18T05:27:06;-9.60;99.90
16066;DHT22;8137;48.952;8.970;2022-12-18T05:29:32;-9.50;99.90
16066;DHT22;8137;48.952;8.970;2022-12-18T05:31:57;-9.50;99.90
16066;DHT22;8137;48.952;8.970;2022-12-18T05:34:23;-9.60;99.90
16066;DHT22;8137;48.952;8.970;2022-12-18T05:36:49;-9.60;99.90
16066;DHT22;8137;48.952;8.970;2022-12-18T05:39:14;-9.60;99.90
16066;DHT22;8137;48.952;8.970;2022-12-18T05:41:40;-9.60;99.90
16066;DHT22;8137;48.952;8.970;2022-12-18T05:44:05;-9.60;99.90
16066;DHT22;8137;48.952;8.970;2022-12-18T05:46:31;-9.60;99.90
16066;DHT22;8137;48.952;8.970;2022-12-18T05:48:59;-9.60;99.90
16066;DHT22;8137;48.952;8.970;2022-12-18T05:51:26;-9.60;99.90
16066;DHT22;8137;48.952;8.970;2022-12-18T05:53:52;-9.60;99.90
16066;DHT22;8137;48.952;8.970;2022-12-18T05:56:19;-9.60;99.90
16066;DHT22;8137;48.952;8.970;2022-12-18T05:58:46;-9.60;99.90
16066;DHT22;8137;48.952;8.970;2022-12-18T06:01:13;-9.70;99.90
16066;DHT22;8137;48.952;8.970;2022-12-18T06:03:39;-9.60;99.90
16066;DHT22;8137;48.952;8.970;2022-12-18T06:06:16;-9.60;99.90
16066;DHT22;8137;48.952;8.970;2022-12-18T06:08:41;-9.70;99.90
16066;DHT22;8137;48.952;8.970;2022-12-18T06:11:07;-9.70;99.90
16066;DHT22;8137;48.952;8.970;2022-12-18T06:13:33;-9.70;99.90
16066;DHT22;8137;48.952;8.970;2022-12-18T06:16:02;-9.80;99.90
16066;DHT22;8137;48.952;8.970;2022-12-18T06:18:27;-9.80;99.90
16066;DHT22;8137;48.952;8.970;2022-12-18T06:20:57;-9.80;99.90
16066;DHT22;8137;48.952;8.970;2022-12-18T06:23:23;-9.80;99.90
16066;DHT22;8137;48.952;8.970;2022-12-18T06:25:49;-9.80;99.90
16066;DHT22;8137;48.952;8.970;2022-12-18T06:28:14;-9.70;99.90
16066;DHT22;8137;48.952;8.970;2022-12-18T06:30:43;-9.80;99.90
16066;DHT22;8137;48.952;8.970;2022-12-18T06:33:09;-9.70;99.90
16066;DHT22;8137;48.952;8.970;2022-12-18T06:35:34;-9.70;99.90
16066;DHT22;8137;48.952;8.970;2022-12-18T06:38:02;-9.80;99.90
16066;DHT22;8137;48.952;8.970;2022-12-18T06:40:28;-9.80;99.90
16066;DHT22;8137;48.952;8.970;2022-12-18T06:42:54;-9.90;99.90
16066;DHT22;8137;48.952;8.970;2022-12-18T06:45:19;-9.90;99.90
16066;DHT22;8137;48.952;8.970;2022-12-18T06:47:45;-10.00;99.90
16066;DHT22;8137;48.952;8.970;2022-12-18T06:50:11;-10.00;99.90
16066;DHT22;8137;48.952;8.970;2022-12-18T06:52:37;-10.10;99.90
16066;DHT22;8137;48.952;8.970;2022-12-18T06:55:03;-10.10;99.90
16066;DHT22;8137;48.952;8.970;2022-12-18T06:57:29;-10.10;99.90
16066;DHT22;8137;48.952;8.970;2022-12-18T06:59:54;-10.10;99.90
16066;DHT22;8137;48.952;8.970;2022-12-18T07:02:20;-10.10;99.90
16066;DHT22;8137;48.952;8.970;2022-12-18T07:04:45;-9.40;99.90
16066;DHT22;8137;48.952;8.970;2022-12-18T07:07:11;-9.10;99.90
16066;DHT22;8137;48.952;8.970;2022-12-18T07:09:37;-9.20;99.90
16066;DHT22;8137;48.952;8.970;2022-12-18T07:12:02;-9.40;99.90
16066;DHT22;8137;48.952;8.970;2022-12-18T07:14:30;-9.50;99.90
16066;DHT22;8137;48.952;8.970;2022-12-18T07:16:55;-9.60;99.90
16066;DHT22;8137;48.952;8.970;2022-12-18T07:19:21;-9.70;99.90
16066;DHT22;8137;48.952;8.970;2022-12-18T07:21:46;-9.70;99.90
16066;DHT22;8137;48.952;8.970;2022-12-18T07:24:12;-9.80;99.90
16066;DHT22;8137;48.952;8.970;2022-12-18T07:26:38;-9.70;99.90
16066;DHT22;8137;48.952;8.970;2022-12-18T07:29:03;-9.70;99.90
16066;DHT22;8137;48.952;8.970;2022-12-18T07:31:29;-9.60;99.90
16066;DHT22;8137;48.952;8.970;2022-12-18T07:33:55;-9.60;99.90
16066;DHT22;8137;48.952;8.970;2022-12-18T07:36:20;-9.50;99.90
16066;DHT22;8137;48.952;8.970;2022-12-18T07:38:49;-9.50;99.90
16066;DHT22;8137;48.952;8.970;2022-12-18T07:41:15;-9.50;99.90
16066;DHT22;8137;48.952;8.970;2022-12-18T07:43:41;-9.50;99.90
16066;DHT22;8137;48.952;8.970;2022-12-18T07:46:08;-9.40;99.90
16066;DHT22;8137;48.952;8.970;2022-12-18T07:48:34;-9.30;99.90
16066;DHT22;8137;48.952;8.970;2022-12-18T07:51:04;-9.40;99.90
16066;DHT22;8137;48.952;8.970;2022-12-18T07:53:31;-9.30;99.90
16066;DHT22;8137;48.952;8.970;2022-12-18T07:55:58;-9.40;99.90
16066;DHT22;8137;48.952;8.970;2022-12-18T07:58:24;-9.30;99.90
16066;DHT22;8137;48.952;8.970;2022-12-18T08:00:50;-9.30;99.90
16066;DHT22;8137;48.952;8.970;2022-12-18T08:03:17;-9.30;99.90
16066;DHT22;8137;48.952;8.970;2022-12-18T08:05:43;-9.30;99.90
16066;DHT22;8137;48.952;8.970;2022-12-18T08:08:09;-9.30;99.90
16066;DHT22;8137;48.952;8.970;2022-12-18T08:10:35;-9.30;99.90
16066;DHT22;8137;48.952;8.970;2022-12-18T08:13:01;-9.20;99.90
16066;DHT22;8137;48.952;8.970;2022-12-18T08:15:26;-9.10;99.90
16066;DHT22;8137;48.952;8.970;2022-12-18T08:17:52;-9.00;99.90
16066;DHT22;8137;48.952;8.970;2022-12-18T08:20:17;-8.90;99.90
16066;DHT22;8137;48.952;8.970;2022-12-18T08:22:43;-8.90;99.90
16066;DHT22;8137;48.952;8.970;2022-12-18T08:25:09;-8.80;99.90
16066;DHT22;8137;48.952;8.970;2022-12-18T08:27:35;-8.80;99.90
16066;DHT22;8137;48.952;8.970;2022-12-18T08:30:01;-8.70;99.90
16066;DHT22;8137;48.952;8.970;2022-12-18T08:32:27;-8.70;99.90
16066;DHT22;8137;48.952;8.970;2022-12-18T08:34:53;-8.60;99.90
16066;DHT22;8137;48.952;8.970;2022-12-18T08:37:18;-8.40;99.90
16066;DHT22;8137;48.952;8.970;2022-12-18T08:39:44;-8.30;99.90
16066;DHT22;8137;48.952;8.970;2022-12-18T08:42:10;-8.20;99.90
16066;DHT22;8137;48.952;8.970;2022-12-18T08:44:54;-8.10;99.90
16066;DHT22;8137;48.952;8.970;2022-12-18T08:47:20;-7.90;99.90
16066;DHT22;8137;48.952;8.970;2022-12-18T08:49:45;-7.90;99.90
16066;DHT22;8137;48.952;8.970;2022-12-18T08:52:13;-7.70;99.90
16066;DHT22;8137;48.952;8.970;2022-12-18T08:54:39;-7.60;99.90
16066;DHT22;8137;48.952;8.970;2022-12-18T08:57:05;-7.50;99.90
16066;DHT22;8137;48.952;8.970;2022-12-18T08:59:30;-7.40;99.90
16066;DHT22;8137;48.952;8.970;2022-12-18T09:01:58;-7.30;99.90
16066;DHT22;8137;48.952;8.970;2022-12-18T09:04:24;-7.20;99.90
16066;DHT22;8137;48.952;8.970;2022-12-18T09:06:49;-7.10;99.90
16066;DHT22;8137;48.952;8.970;2022-12-18T09:09:15;-7.00;99.90
16066;DHT22;8137;48.952;8.970;2022-12-18T09:11:41;-6.90;99.90
16066;DHT22;8137;48.952;8.970;2022-12-18T09:14:06;-6.80;99.90
16066;DHT22;8137;48.952;8.970;2022-12-18T09:16:32;-6.70;99.90
16066;DHT22;8137;48.952;8.970;2022-12-18T09:19:01;-6.60;99.90
16066;DHT22;8137;48.952;8.970;2022-12-18T09:21:32;-6.50;99.90
16066;DHT22;8137;48.952;8.970;2022-12-18T09:23:58;-6.40;99.90
16066;DHT22;8137;48.952;8.970;2022-12-18T09:26:25;-6.40;99.90
16066;DHT22;8137;48.952;8.970;2022-12-18T09:28:51;-6.20;99.90
16066;DHT22;8137;48.952;8.970;2022-12-18T09:31:19;-6.10;99.90
16066;DHT22;8137;48.952;8.970;2022-12-18T09:33:46;-6.00;99.90
16066;DHT22;8137;48.952;8.970;2022-12-18T09:36:14;-5.90;99.90
16066;DHT22;8137;48.952;8.970;2022-12-18T09:38:40;-5.80;99.90
16066;DHT22;8137;48.952;8.970;2022-12-18T09:43:47;-5.70;99.90
16066;DHT22;8137;48.952;8.970;2022-12-18T09:46:22;-5.60;99.90
16066;DHT22;8137;48.952;8.970;2022-12-18T09:48:52;-5.60;99.90
16066;DHT22;8137;48.952;8.970;2022-12-18T09:51:30;-5.50;99.90
16066;DHT22;8137;48.952;8.970;2022-12-18T09:54:01;-5.40;99.90
16066;DHT22;8137;48.952;8.970;2022-12-18T09:56:35;-5.30;99.90
16066;DHT22;8137;48.952;8.970;2022-12-18T09:59:04;-5.20;99.90
16066;DHT22;8137;48.952;8.970;2022-12-18T10:01:31;-5.10;99.90
16066;DHT22;8137;48.952;8.970;2022-12-18T10:03:58;-5.10;99.90
16066;DHT22;8137;48.952;8.970;2022-12-18T10:17:13;-4.30;99.90
16066;DHT22;8137;48.952;8.970;2022-12-18T10:19:57;-4.30;99.90
16066;DHT22;8137;48.952;8.970;2022-12-18T10:22:55;-4.20;99.90
16066;DHT22;8137;48.952;8.970;2022-12-18T10:25:28;-4.00;99.90
16066;DHT22;8137;48.952;8.970;2022-12-18T10:28:06;-3.80;99.90
16066;DHT22;8137;48.952;8.970;2022-12-18T10:30:32;-3.70;99.90
16066;DHT22;8137;48.952;8.970;2022-12-18T10:33:01;-3.50;99.90
16066;DHT22;8137;48.952;8.970;2022-12-18T10:35:27;-3.50;99.90
16066;DHT22;8137;48.952;8.970;2022-12-18T10:40:26;-3.50;99.90
16066;DHT22;8137;48.952;8.970;2022-12-18T10:43:16;-3.50;99.90
16066;DHT22;8137;48.952;8.970;2022-12-18T10:46:19;-3.40;99.90
16066;DHT22;8137;48.952;8.970;2022-12-18T10:51:29;-3.20;99.90
16066;DHT22;8137;48.952;8.970;2022-12-18T10:53:59;-3.10;99.90
16066;DHT22;8137;48.952;8.970;2022-12-18T10:56:27;-2.90;99.90
16066;DHT22;8137;48.952;8.970;2022-12-18T10:59:02;-2.80;99.90
16066;DHT22;8137;48.952;8.970;2022-12-18T11:01:48;-2.70;99.90
16066;DHT22;8137;48.952;8.970;2022-12-18T11:04:25;-2.60;99.90
16066;DHT22;8137;48.952;8.970;2022-12-18T11:09:33;-2.20;99.90
16066;DHT22;8137;48.952;8.970;2022-12-18T11:12:04;-2.20;99.90
16066;DHT22;8137;48.952;8.970;2022-12-18T11:17:19;-2.20;99.90
16066;DHT22;8137;48.952;8.970;2022-12-18T11:19:53;-2.00;99.90
16066;DHT22;8137;48.952;8.970;2022-12-18T11:22:23;-1.90;99.90
16066;DHT22;8137;48.952;8.970;2022-12-18T11:27:19;-1.80;99.90
16066;DHT22;8137;48.952;8.970;2022-12-18T11:29:44;-1.80;99.90
16066;DHT22;8137;48.952;8.970;2022-12-18T11:35:13;-1.90;99.90
16066;DHT22;8137;48.952;8.970;2022-12-18T11:37:45;-1.90;99.90
16066;DHT22;8137;48.952;8.970;2022-12-18T11:40:19;-1.90;99.90
16066;DHT22;8137;48.952;8.970;2022-12-18T11:43:13;-1.80;99.90
16066;DHT22;8137;48.952;8.970;2022-12-18T11:45:43;-1.70;99.90
16066;DHT22;8137;48.952;8.970;2022-12-18T11:48:18;-1.60;99.90
16066;DHT22;8137;48.952;8.970;2022-12-18T11:50:54;-1.60;99.90
16066;DHT22;8137;48.952;8.970;2022-12-18T11:53:21;-1.60;99.90
16066;DHT22;8137;48.952;8.970;2022-12-18T11:55:49;-1.60;99.90
16066;DHT22;8137;48.952;8.970;2022-12-18T12:06:33;-1.60;99.90
16066;DHT22;8137;48.952;8.970;2022-12-18T12:09:17;-1.50;99.90
16066;DHT22;8137;48.952;8.970;2022-12-18T12:17:04;-1.40;99.90
16066;DHT22;8137;48.952;8.970;2022-12-18T12:19:41;-1.30;99.90
16066;DHT22;8137;48.952;8.970;2022-12-18T12:27:58;-1.20;99.90
16066;DHT22;8137;48.952;8.970;2022-12-18T12:30:55;-1.20;99.90
16066;DHT22;8137;48.952;8.970;2022-12-18T12:39:01;-1.20;99.90
16066;DHT22;8137;48.952;8.970;2022-12-18T12:41:31;-1.10;99.90
16066;DHT22;8137;48.952;8.970;2022-12-18T12:44:26;-1.00;99.90
16066;DHT22;8137;48.952;8.970;2022-12-18T12:46:58;-0.90;99.90
16066;DHT22;8137;48.952;8.970;2022-12-18T12:49:27;-0.90;99.90
16066;DHT22;8137;48.952;8.970;2022-12-18T12:52:07;-1.00;99.90
16066;DHT22;8137;48.952;8.970;2022-12-18T12:54:36;-0.90;99.90
16066;DHT22;8137;48.952;8.970;2022-12-18T13:00:04;-0.90;99.90
16066;DHT22;8137;48.952;8.970;2022-12-18T13:05:29;-0.90;99.90
16066;DHT22;8137;48.952;8.970;2022-12-18T13:08:07;-0.80;99.90
16066;DHT22;8137;48.952;8.970;2022-12-18T13:10:40;-0.70;99.90
16066;DHT22;8137;48.952;8.970;2022-12-18T13:13:14;-0.70;99.90
16066;DHT22;8137;48.952;8.970;2022-12-18T13:16:06;-0.60;99.90
16066;DHT22;8137;48.952;8.970;2022-12-18T13:18:32;-0.60;99.90
16066;DHT22;8137;48.952;8.970;2022-12-18T13:25:56;-0.50;99.90
16066;DHT22;8137;48.952;8.970;2022-12-18T13:31:10;-0.60;99.90
16066;DHT22;8137;48.952;8.970;2022-12-18T13:33:46;-0.50;99.90
16066;DHT22;8137;48.952;8.970;2022-12-18T13:36:29;-0.50;99.90
16066;DHT22;8137;48.952;8.970;2022-12-18T13:39:11;-0.40;99.90
16066;DHT22;8137;48.952;8.970;2022-12-18T13:41:37;-0.40;99.90
16066;DHT22;8137;48.952;8.970;2022-12-18T13:44:17;-0.40;99.90
16066;DHT22;8137;48.952;8.970;2022-12-18T13:46:48;-0.40;99.90
16066;DHT22;8137;48.952;8.970;2022-12-18T13:49:23;-0.50;99.90
16066;DHT22;8137;48.952;8.970;2022-12-18T13:51:51;-0.70;99.90
16066;DHT22;8137;48.952;8.970;2022-12-18T13:54:40;-0.80;99.90
16066;DHT22;8137;48.952;8.970;2022-12-18T13:59:53;-1.00;99.90
16066;DHT22;8137;48.952;8.970;2022-12-18T14:02:27;-1.00;99.90
16066;DHT22;8137;48.952;8.970;2022-12-18T14:04:54;-1.10;99.90
16066;DHT22;8137;48.952;8.970;2022-12-18T14:07:25;-1.20;99.90
16066;DHT22;8137;48.952;8.970;2022-12-18T14:09:59;-1.20;99.90
16066;DHT22;8137;48.952;8.970;2022-12-18T14:12:33;-1.30;99.90
16066;DHT22;8137;48.952;8.970;2022-12-18T14:15:36;-1.40;99.90
16066;DHT22;8137;48.952;8.970;2022-12-18T14:21:00;-1.50;99.90
16066;DHT22;8137;48.952;8.970;2022-12-18T14:23:38;-1.50;99.90
16066;DHT22;8137;48.952;8.970;2022-12-18T14:26:34;-1.60;99.90
16066;DHT22;8137;48.952;8.970;2022-12-18T14:29:10;-1.70;99.90
16066;DHT22;8137;48.952;8.970;2022-12-18T14:31:42;-1.70;99.90
16066;DHT22;8137;48.952;8.970;2022-12-18T14:34:17;-1.80;99.90
16066;DHT22;8137;48.952;8.970;2022-12-18T14:36:52;-1.90;99.90
16066;DHT22;8137;48.952;8.970;2022-12-18T14:39:18;-2.00;99.90
16066;DHT22;8137;48.952;8.970;2022-12-18T14:41:44;-2.00;99.90
16066;DHT22;8137;48.952;8.970;2022-12-18T14:44:12;-2.00;99.90
16066;DHT22;8137;48.952;8.970;2022-12-18T14:46:39;-2.10;99.90
16066;DHT22;8137;48.952;8.970;2022-12-18T14:49:22;-2.10;99.90
16066;DHT22;8137;48.952;8.970;2022-12-18T14:51:54;-2.20;99.90
16066;DHT22;8137;48.952;8.970;2022-12-18T14:54:21;-2.30;99.90
16066;DHT22;8137;48.952;8.970;2022-12-18T14:56:49;-2.30;99.90
16066;DHT22;8137;48.952;8.970;2022-12-18T14:59:20;-2.40;99.90
16066;DHT22;8137;48.952;8.970;2022-12-18T15:02:12;-2.40;99.90
16066;DHT22;8137;48.952;8.970;2022-12-18T15:04:41;-2.50;99.90
16066;DHT22;8137;48.952;8.970;2022-12-18T15:09:40;-2.60;99.90
16066;DHT22;8137;48.952;8.970;2022-12-18T15:12:33;-2.60;99.90
16066;DHT22;8137;48.952;8.970;2022-12-18T15:14:59;-2.70;99.90
16066;DHT22;8137;48.952;8.970;2022-12-18T15:17:25;-2.80;99.90
16066;DHT22;8137;48.952;8.970;2022-12-18T15:19:59;-2.90;99.90
16066;DHT22;8137;48.952;8.970;2022-12-18T15:22:31;-2.90;99.90
16066;DHT22;8137;48.952;8.970;2022-12-18T15:24:59;-3.00;99.90
16066;DHT22;8137;48.952;8.970;2022-12-18T15:27:31;-3.10;99.90
16066;DHT22;8137;48.952;8.970;2022-12-18T15:32:36;-3.20;99.90
16066;DHT22;8137;48.952;8.970;2022-12-18T15:37:34;-3.30;99.90
16066;DHT22;8137;48.952;8.970;2022-12-18T15:40:00;-3.40;99.90
16066;DHT22;8137;48.952;8.970;2022-12-18T15:42:27;-3.40;99.90
16066;DHT22;8137;48.952;8.970;2022-12-18T15:45:12;-3.50;99.90
16066;DHT22;8137;48.952;8.970;2022-12-18T15:47:38;-3.50;99.90
16066;DHT22;8137;48.952;8.970;2022-12-18T15:50:04;-3.50;99.90
16066;DHT22;8137;48.952;8.970;2022-12-18T15:52:32;-3.60;99.90
16066;DHT22;8137;48.952;8.970;2022-12-18T15:55:03;-3.60;99.90
16066;DHT22;8137;48.952;8.970;2022-12-18T15:57:47;-3.60;99.90
16066;DHT22;8137;48.952;8.970;2022-12-18T16:00:13;-3.70;99.90
16066;DHT22;8137;48.952;8.970;2022-12-18T16:02:39;-3.70;99.90
16066;DHT22;8137;48.952;8.970;2022-12-18T16:05:13;-3.70;99.90
16066;DHT22;8137;48.952;8.970;2022-12-18T16:07:39;-3.70;99.90
16066;DHT22;8137;48.952;8.970;2022-12-18T16:10:05;-3.70;99.90
16066;DHT22;8137;48.952;8.970;2022-12-18T16:12:31;-3.70;99.90
16066;DHT22;8137;48.952;8.970;2022-12-18T16:14:57;-3.70;99.90
16066;DHT22;8137;48.952;8.970;2022-12-18T16:17:22;-3.70;99.90
16066;DHT22;8137;48.952;8.970;2022-12-18T16:19:48;-3.70;99.90
16066;DHT22;8137;48.952;8.970;2022-12-18T16:22:25;-3.70;99.90
16066;DHT22;8137;48.952;8.970;2022-12-18T16:24:53;-3.60;99.90
16066;DHT22;8137;48.952;8.970;2022-12-18T16:27:19;-3.60;99.90
16066;DHT22;8137;48.952;8.970;2022-12-18T16:29:45;-3.60;99.90
16066;DHT22;8137;48.952;8.970;2022-12-18T16:32:17;-3.60;99.90
16066;DHT22;8137;48.952;8.970;2022-12-18T16:34:42;-3.50;99.90
16066;DHT22;8137;48.952;8.970;2022-12-18T16:37:10;-3.50;99.90
16066;DHT22;8137;48.952;8.970;2022-12-18T16:39:36;-3.40;99.90
16066;DHT22;8137;48.952;8.970;2022-12-18T16:42:21;-3.40;99.90
16066;DHT22;8137;48.952;8.970;2022-12-18T16:44:48;-3.40;99.90
16066;DHT22;8137;48.952;8.970;2022-12-18T16:47:14;-3.40;99.90
16066;DHT22;8137;48.952;8.970;2022-12-18T16:49:39;-3.40;99.90
16066;DHT22;8137;48.952;8.970;2022-12-18T16:52:06;-3.40;99.90
16066;DHT22;8137;48.952;8.970;2022-12-18T16:54:32;-3.40;99.90
16066;DHT22;8137;48.952;8.970;2022-12-18T16:56:59;-3.40;99.90
16066;DHT22;8137;48.952;8.970;2022-12-18T16:59:26;-3.30;99.90
16066;DHT22;8137;48.952;8.970;2022-12-18T17:01:52;-3.30;99.90
16066;DHT22;8137;48.952;8.970;2022-12-18T17:04:17;-3.30;99.90
16066;DHT22;8137;48.952;8.970;2022-12-18T17:06:45;-3.30;99.90
16066;DHT22;8137;48.952;8.970;2022-12-18T17:09:16;-3.20;99.90
16066;DHT22;8137;48.952;8.970;2022-12-18T17:11:43;-3.20;99.90
16066;DHT22;8137;48.952;8.970;2022-12-18T17:14:12;-3.20;99.90
16066;DHT22;8137;48.952;8.970;2022-12-18T17:16:39;-3.10;99.90
16066;DHT22;8137;48.952;8.970;2022-12-18T17:19:05;-3.10;99.90
16066;DHT22;8137;48.952;8.970;2022-12-18T17:21:30;-3.10;99.90
16066;DHT22;8137;48.952;8.970;2022-12-18T17:23:59;-3.10;99.90
16066;DHT22;8137;48.952;8.970;2022-12-18T17:26:26;-3.00;99.90
16066;DHT22;8137;48.952;8.970;2022-12-18T17:28:52;-3.00;99.90
16066;DHT22;8137;48.952;8.970;2022-12-18T17:31:19;-3.00;99.90
16066;DHT22;8137;48.952;8.970;2022-12-18T17:33:46;-3.00;99.90
16066;DHT22;8137;48.952;8.970;2022-12-18T17:36:12;-3.00;99.90
16066;DHT22;8137;48.952;8.970;2022-12-18T17:38:38;-3.00;99.90
16066;DHT22;8137;48.952;8.970;2022-12-18T17:41:05;-3.00;99.90
16066;DHT22;8137;48.952;8.970;2022-12-18T17:43:31;-2.90;99.90
16066;DHT22;8137;48.952;8.970;2022-12-18T17:46:04;-2.90;99.90
16066;DHT22;8137;48.952;8.970;2022-12-18T17:48:30;-2.90;99.90